createdAt,value
2023-07-17T00:00:06.821Z,94.20
2023-07-17T00:02:33.597Z,94.91
2023-07-17T00:05:00.041Z,94.79
2023-07-17T00:07:27.146Z,95.49
2023-07-17T00:09:53.701Z,95.02
2023-07-17T00:12:20.220Z,95.37
2023-07-17T00:14:46.713Z,95.36
2023-07-17T00:17:13.830Z,95.87
2023-07-17T00:19:40.577Z,95.84
2023-07-17T00:22:08.465Z,96.04
2023-07-17T00:24:35.260Z,96.52
2023-07-17T00:27:02.738Z,96.49
2023-07-17T00:29:29.998Z,97.11
2023-07-17T00:31:56.876Z,97.86
2023-07-17T00:34:23.447Z,98.16
2023-07-17T00:36:50.142Z,97.38
2023-07-17T00:39:16.687Z,96.36
2023-07-17T00:41:43.234Z,96.96
2023-07-17T00:44:10.461Z,96.54
2023-07-17T00:46:37.491Z,96.24
2023-07-17T00:49:06.865Z,95.75
2023-07-17T00:51:33.990Z,95.54
2023-07-17T00:54:01.518Z,95.97
2023-07-17T00:56:31.249Z,96.46
2023-07-17T00:58:58.821Z,94.92
2023-07-17T01:01:27.093Z,95.74
2023-07-17T01:03:56.624Z,96.68
2023-07-17T01:06:26.892Z,97.02
2023-07-17T01:08:53.744Z,97.36
2023-07-17T01:11:20.266Z,97.72
2023-07-17T01:13:47.578Z,97.92
2023-07-17T01:16:14.907Z,97.96
2023-07-17T01:18:42.104Z,97.85
2023-07-17T01:21:12.587Z,98.16
2023-07-17T01:23:39.287Z,98.43
2023-07-17T01:26:16.513Z,97.35
2023-07-17T01:28:44.371Z,97.32
2023-07-17T01:31:11.629Z,98.52
2023-07-17T01:33:38.765Z,98.96
2023-07-17T01:36:06.849Z,98.66
2023-07-17T01:38:34.764Z,97.69
2023-07-17T01:41:01.697Z,98.54
2023-07-17T01:43:28.317Z,98.45
2023-07-17T01:45:54.767Z,98.74
2023-07-17T01:48:21.288Z,98.24
2023-07-17T01:50:48.225Z,98.33
2023-07-17T01:53:20.069Z,98.96
2023-07-17T01:55:47.320Z,98.96
2023-07-17T01:58:13.937Z,99.00
2023-07-17T02:00:40.435Z,98.45
2023-07-17T02:03:07.082Z,98.81
2023-07-17T02:05:33.669Z,97.78
2023-07-17T02:08:00.199Z,97.98
2023-07-17T02:10:26.696Z,98.45
2023-07-17T02:12:53.152Z,98.72
2023-07-17T02:15:19.752Z,98.99
2023-07-17T02:17:46.265Z,99.58
2023-07-17T02:20:14.482Z,99.72
2023-07-17T02:22:42.384Z,99.52
2023-07-17T02:25:09.551Z,98.94
2023-07-17T02:27:36.275Z,99.82
2023-07-17T02:30:04.403Z,100.00
2023-07-17T02:32:31.498Z,100.00
2023-07-17T02:34:58.193Z,100.00
2023-07-17T02:37:25.132Z,99.94
2023-07-17T02:39:52.459Z,100.00
2023-07-17T02:42:19.133Z,100.00
2023-07-17T02:44:47.791Z,100.00
2023-07-17T02:47:15.469Z,99.86
2023-07-17T02:49:43.050Z,100.00
2023-07-17T02:52:10.177Z,100.00
2023-07-17T02:54:38.264Z,100.00
2023-07-17T02:57:05.851Z,100.00
2023-07-17T02:59:32.445Z,100.00
2023-07-17T03:01:59.223Z,100.00
2023-07-17T03:04:26.503Z,100.00
2023-07-17T03:06:53.142Z,100.00
2023-07-17T03:09:19.660Z,100.00
2023-07-17T03:11:46.142Z,100.00
2023-07-17T03:14:12.622Z,100.00
2023-07-17T03:16:39.145Z,100.00
2023-07-17T03:19:05.681Z,100.00
2023-07-17T03:21:33.182Z,100.00
2023-07-17T03:24:01.189Z,100.00
2023-07-17T03:26:27.835Z,100.00
2023-07-17T03:28:54.530Z,100.00
2023-07-17T03:31:21.261Z,100.00
2023-07-17T03:33:48.034Z,100.00
2023-07-17T03:36:14.636Z,100.00
2023-07-17T03:38:42.054Z,100.00
2023-07-17T03:41:08.535Z,100.00
2023-07-17T03:43:34.976Z,100.00
2023-07-17T03:46:01.456Z,100.00
2023-07-17T03:48:27.946Z,100.00
2023-07-17T03:50:54.410Z,100.00
2023-07-17T03:53:20.917Z,100.00
2023-07-17T03:55:47.398Z,100.00
2023-07-17T03:58:13.858Z,100.00
2023-07-17T04:00:40.367Z,100.00
2023-07-17T04:03:06.931Z,100.00
2023-07-17T04:05:33.506Z,100.00
2023-07-17T04:08:02.159Z,100.00
2023-07-17T04:10:29.973Z,100.00
2023-07-17T04:12:56.586Z,100.00
2023-07-17T04:15:23.138Z,100.00
2023-07-17T04:17:49.677Z,100.00
2023-07-17T04:20:17.450Z,100.00
2023-07-17T04:22:44.091Z,100.00
2023-07-17T04:25:10.643Z,100.00
2023-07-17T04:27:37.199Z,100.00
2023-07-17T04:30:04.486Z,100.00
2023-07-17T04:32:31.018Z,100.00
2023-07-17T04:34:57.995Z,100.00
2023-07-17T04:37:24.437Z,100.00
2023-07-17T04:39:51.188Z,100.00
2023-07-17T04:42:17.644Z,100.00
2023-07-17T04:44:47.283Z,98.75
2023-07-17T04:47:13.914Z,96.74
2023-07-17T04:49:40.519Z,93.93
2023-07-17T04:52:07.423Z,92.34
2023-07-17T04:54:34.328Z,90.32
2023-07-17T04:57:00.855Z,88.61
2023-07-17T04:59:27.299Z,88.20
2023-07-17T05:01:53.743Z,87.26
2023-07-17T05:04:21.435Z,88.75
2023-07-17T05:06:47.869Z,87.05
2023-07-17T05:09:14.459Z,85.75
2023-07-17T05:11:42.982Z,85.98
2023-07-17T05:14:09.732Z,85.33
2023-07-17T05:16:36.399Z,84.48
2023-07-17T05:19:02.955Z,83.47
2023-07-17T05:21:29.465Z,82.94
2023-07-17T05:23:55.928Z,82.24
2023-07-17T05:26:22.822Z,82.81
2023-07-17T05:28:50.389Z,79.67
2023-07-17T05:31:17.297Z,77.38
2023-07-17T05:33:44.399Z,78.93
2023-07-17T05:36:10.889Z,80.82
2023-07-17T05:38:38.649Z,80.76
2023-07-17T05:41:05.181Z,79.43
2023-07-17T05:43:32.956Z,78.14
2023-07-17T05:45:59.850Z,77.78
2023-07-17T05:48:26.365Z,73.80
2023-07-17T05:50:52.811Z,73.22
2023-07-17T05:53:19.327Z,72.39
2023-07-17T05:55:45.863Z,71.39
2023-07-17T05:58:12.407Z,72.64
2023-07-17T06:00:38.924Z,71.35
2023-07-17T06:03:05.396Z,72.94
2023-07-17T06:05:36.322Z,73.49
2023-07-17T06:08:02.820Z,74.42
2023-07-17T06:10:30.717Z,75.85
2023-07-17T06:12:57.453Z,76.92
2023-07-17T06:15:23.891Z,76.14
2023-07-17T06:17:50.398Z,76.79
2023-07-17T06:20:17.288Z,75.79
2023-07-17T06:22:43.890Z,75.04
2023-07-17T06:25:10.446Z,73.90
2023-07-17T06:27:36.903Z,73.83
2023-07-17T06:30:03.898Z,72.33
2023-07-17T06:32:30.420Z,70.38
2023-07-17T06:34:57.018Z,69.70
2023-07-17T06:37:23.905Z,68.64
2023-07-17T06:39:50.407Z,69.38
2023-07-17T06:42:16.905Z,67.98
2023-07-17T06:44:43.365Z,69.87
2023-07-17T06:47:20.771Z,69.54
2023-07-17T06:49:52.049Z,69.89
2023-07-17T06:52:18.578Z,68.87
2023-07-17T06:54:57.459Z,68.65
2023-07-17T06:57:29.258Z,66.23
2023-07-17T06:59:55.717Z,64.74
2023-07-17T07:02:22.248Z,63.96
2023-07-17T07:04:48.754Z,63.72
2023-07-17T07:07:18.195Z,62.81
2023-07-17T07:09:45.387Z,58.32
2023-07-17T07:12:11.871Z,58.64
2023-07-17T07:14:38.418Z,58.61
2023-07-17T07:17:04.981Z,58.46
2023-07-17T07:19:31.465Z,57.22
2023-07-17T07:21:57.945Z,56.59
2023-07-17T07:24:24.534Z,55.60
2023-07-17T07:26:50.997Z,55.56
2023-07-17T07:29:18.231Z,56.84
2023-07-17T07:31:44.727Z,56.54
2023-07-17T07:34:11.245Z,56.33
2023-07-17T07:36:37.933Z,56.61
2023-07-17T07:39:06.752Z,55.83
2023-07-17T07:41:37.093Z,57.16
2023-07-17T07:44:03.635Z,54.32
2023-07-17T07:46:30.375Z,53.13
2023-07-17T07:48:57.012Z,53.58
2023-07-17T07:51:23.526Z,53.14
2023-07-17T07:53:50.133Z,53.13
2023-07-17T07:56:17.313Z,51.25
2023-07-17T07:58:44.099Z,53.47
2023-07-17T08:01:10.682Z,52.73
2023-07-17T08:03:37.378Z,50.35
2023-07-17T08:06:04.047Z,50.64
2023-07-17T08:08:31.007Z,49.75
2023-07-17T08:10:57.485Z,49.04
2023-07-17T08:13:23.998Z,50.15
2023-07-17T08:15:50.852Z,49.53
2023-07-17T08:18:17.950Z,48.62
2023-07-17T08:20:44.854Z,48.92
2023-07-17T08:23:11.477Z,48.41
2023-07-17T08:25:38.295Z,47.61
2023-07-17T08:28:04.807Z,47.88
2023-07-17T08:30:31.295Z,47.00
2023-07-17T08:32:57.795Z,48.03
2023-07-17T08:35:24.302Z,47.04
2023-07-17T08:37:50.753Z,48.11
2023-07-17T08:40:17.259Z,47.83
2023-07-17T08:42:47.817Z,47.83
2023-07-17T08:45:15.200Z,48.01
2023-07-17T08:47:43.027Z,46.25
2023-07-17T08:50:12.349Z,44.79
2023-07-17T08:52:39.894Z,46.26
2023-07-17T08:55:07.214Z,46.65
2023-07-17T08:57:35.390Z,46.65
2023-07-17T09:00:02.683Z,46.84
2023-07-17T09:02:29.417Z,46.08
2023-07-17T09:04:55.933Z,45.11
2023-07-17T09:07:22.374Z,44.06
2023-07-17T09:10:21.889Z,43.23
2023-07-17T09:12:54.955Z,44.43
2023-07-17T09:15:21.536Z,43.38
2023-07-17T09:17:48.199Z,42.96
2023-07-17T09:20:17.400Z,42.51
2023-07-17T09:22:44.649Z,42.98
2023-07-17T09:25:12.210Z,41.83
2023-07-17T09:27:48.407Z,39.98
2023-07-17T09:30:23.287Z,40.38
2023-07-17T09:32:51.210Z,38.81
2023-07-17T09:35:24.413Z,40.37
2023-07-17T09:37:51.974Z,39.63
2023-07-17T09:40:20.162Z,39.80
2023-07-17T09:42:53.580Z,41.08
2023-07-17T09:45:21.130Z,41.55
2023-07-17T09:47:50.893Z,41.16
2023-07-17T09:50:19.968Z,41.54
2023-07-17T09:52:46.539Z,43.06
2023-07-17T09:55:14.601Z,43.37
2023-07-17T09:57:44.040Z,44.76
2023-07-17T10:00:14.531Z,44.75
2023-07-17T10:02:48.559Z,43.37
2023-07-17T10:05:15.706Z,42.86
2023-07-17T10:07:46.618Z,41.96
2023-07-17T10:10:13.932Z,41.16
2023-07-17T10:12:42.496Z,41.11
2023-07-17T10:15:10.587Z,40.66
2023-07-17T10:17:37.524Z,39.95
2023-07-17T10:20:08.280Z,41.65
2023-07-17T10:22:35.821Z,41.69
2023-07-17T10:25:18.498Z,41.34
2023-07-17T10:27:47.305Z,41.03
2023-07-17T10:30:31.285Z,40.84
2023-07-17T10:33:04.665Z,41.29
2023-07-17T10:35:45.817Z,40.38
2023-07-17T10:38:13.824Z,39.82
2023-07-17T10:40:40.436Z,38.72
2023-07-17T10:43:22.250Z,38.24
2023-07-17T10:45:49.537Z,38.24
2023-07-17T10:48:16.440Z,36.43
2023-07-17T10:50:54.282Z,36.33
2023-07-17T10:53:22.194Z,37.15
2023-07-17T10:55:48.866Z,37.16
2023-07-17T10:58:21.619Z,37.98
2023-07-17T11:00:49.135Z,37.86
2023-07-17T11:03:21.794Z,37.76
2023-07-17T11:05:48.254Z,39.02
2023-07-17T11:08:15.087Z,38.72
2023-07-17T11:10:45.178Z,38.69
2023-07-17T11:13:12.199Z,38.01
2023-07-17T11:15:39.037Z,38.08
2023-07-17T11:18:06.984Z,36.61
2023-07-17T11:20:34.231Z,36.13
2023-07-17T11:23:01.145Z,36.96
2023-07-17T11:25:34.282Z,36.52
2023-07-17T11:28:01.841Z,36.77
2023-07-17T11:30:30.498Z,37.54
2023-07-17T11:33:05.514Z,37.76
2023-07-17T11:35:38.601Z,35.84
2023-07-17T11:38:09.719Z,36.59
2023-07-17T11:40:56.370Z,37.68
2023-07-17T11:43:34.800Z,37.14
2023-07-17T11:46:03.238Z,37.28
2023-07-17T11:48:31.532Z,35.66
2023-07-17T11:50:59.183Z,36.16
2023-07-17T11:53:25.811Z,36.14
2023-07-17T11:55:52.404Z,35.08
2023-07-17T11:58:23.897Z,35.93
2023-07-17T12:00:54.736Z,36.08
2023-07-17T12:03:21.702Z,34.00
2023-07-17T12:05:48.766Z,34.66
2023-07-17T12:08:15.402Z,35.47
2023-07-17T12:10:42.083Z,35.64
2023-07-17T12:13:09.196Z,35.68
2023-07-17T12:15:36.630Z,35.82
2023-07-17T12:18:03.479Z,35.80
2023-07-17T12:20:33.204Z,36.04
2023-07-17T12:23:00.440Z,36.20
2023-07-17T12:25:29.646Z,36.75
2023-07-17T12:28:00.302Z,35.90
2023-07-17T12:30:26.960Z,36.80
2023-07-17T12:32:53.625Z,35.60
2023-07-17T12:35:20.174Z,34.95
2023-07-17T12:37:46.632Z,35.45
2023-07-17T12:40:13.164Z,34.72
2023-07-17T12:42:40.519Z,34.77
2023-07-17T12:45:07.877Z,33.72
2023-07-17T12:47:34.750Z,34.36
2023-07-17T12:50:02.138Z,34.45
2023-07-17T12:52:29.011Z,34.17
2023-07-17T12:54:55.550Z,33.69
2023-07-17T12:57:22.116Z,34.43
2023-07-17T12:59:48.601Z,35.19
2023-07-17T13:02:15.204Z,34.82
2023-07-17T13:04:41.746Z,35.40
2023-07-17T13:07:08.208Z,34.29
2023-07-17T13:09:35.356Z,35.81
2023-07-17T13:12:02.338Z,35.14
2023-07-17T13:14:28.794Z,35.52
2023-07-17T13:16:57.782Z,35.21
2023-07-17T13:19:24.636Z,36.04
2023-07-17T13:21:51.080Z,35.63
2023-07-17T13:24:20.143Z,36.00
2023-07-17T13:26:46.660Z,35.90
2023-07-17T13:29:13.152Z,35.98
2023-07-17T13:31:39.674Z,34.63
2023-07-17T13:34:06.219Z,34.56
2023-07-17T13:36:32.677Z,35.56
2023-07-17T13:38:59.217Z,35.36
2023-07-17T13:41:45.569Z,35.13
2023-07-17T13:44:14.811Z,34.92
2023-07-17T13:46:46.537Z,34.91
2023-07-17T13:49:13.232Z,34.73
2023-07-17T13:51:40.465Z,34.26
2023-07-17T13:54:07.892Z,35.18
2023-07-17T13:59:08.477Z,34.75
2023-07-17T14:01:35.789Z,34.46
2023-07-17T14:04:05.471Z,33.61
2023-07-17T14:06:32.884Z,32.98
2023-07-17T14:08:59.863Z,32.96
2023-07-17T14:11:29.493Z,33.49
2023-07-17T14:13:59.710Z,33.59
2023-07-17T14:16:26.277Z,33.53
2023-07-17T14:18:52.830Z,33.82
2023-07-17T14:21:19.323Z,33.29
2023-07-17T14:23:45.825Z,33.76
2023-07-17T14:26:12.411Z,33.83
2023-07-17T14:28:38.871Z,33.36
2023-07-17T14:31:06.339Z,33.33
2023-07-17T14:33:32.808Z,33.31
2023-07-17T14:35:59.405Z,33.44
2023-07-17T14:38:25.904Z,33.67
2023-07-17T14:40:52.959Z,33.19
2023-07-17T14:43:19.399Z,32.75
2023-07-17T14:45:45.907Z,32.63
2023-07-17T14:48:12.578Z,32.99
2023-07-17T14:50:39.548Z,32.65
2023-07-17T14:53:06.132Z,33.08
2023-07-17T14:55:35.184Z,32.59
2023-07-17T14:58:03.337Z,32.95
2023-07-17T15:00:29.860Z,32.41
2023-07-17T15:02:56.528Z,32.58
2023-07-17T15:05:24.162Z,33.72
2023-07-17T15:07:50.768Z,32.57
2023-07-17T15:10:17.300Z,33.57
2023-07-17T15:12:43.937Z,33.40
2023-07-17T15:15:11.646Z,33.19
2023-07-17T15:17:38.573Z,32.91
2023-07-17T15:20:06.818Z,32.94
2023-07-17T15:22:33.377Z,32.61
2023-07-17T15:24:59.936Z,31.85
2023-07-17T15:27:26.416Z,32.03
2023-07-17T15:29:52.888Z,32.57
2023-07-17T15:32:19.431Z,33.10
2023-07-17T15:34:46.140Z,33.72
2023-07-17T15:37:12.663Z,34.21
2023-07-17T15:39:39.205Z,32.59
2023-07-17T15:42:05.916Z,33.12
2023-07-17T15:44:32.495Z,33.03
2023-07-17T15:46:59.080Z,34.14
2023-07-17T15:49:25.621Z,33.85
2023-07-17T15:51:52.273Z,34.06
2023-07-17T15:54:19.090Z,33.79
2023-07-17T15:56:45.881Z,33.66
2023-07-17T15:59:12.948Z,33.65
2023-07-17T16:01:39.732Z,34.87
2023-07-17T16:04:06.408Z,34.42
2023-07-17T16:06:32.904Z,34.22
2023-07-17T16:08:59.350Z,35.01
2023-07-17T16:11:25.945Z,35.26
2023-07-17T16:13:52.428Z,34.92
2023-07-17T16:16:19.148Z,34.37
2023-07-17T16:18:45.920Z,34.57
2023-07-17T16:21:12.559Z,34.50
2023-07-17T16:23:39.026Z,34.66
2023-07-17T16:26:07.291Z,35.13
2023-07-17T16:28:33.804Z,35.25
2023-07-17T16:31:00.531Z,35.62
2023-07-17T16:33:27.084Z,35.42
2023-07-17T16:35:53.544Z,35.92
2023-07-17T16:38:19.990Z,36.34
2023-07-17T16:40:48.462Z,36.44
2023-07-17T16:43:14.936Z,36.26
2023-07-17T16:45:41.486Z,35.48
2023-07-17T16:48:08.187Z,35.68
2023-07-17T16:50:35.290Z,35.34
2023-07-17T16:53:01.870Z,35.62
2023-07-17T16:55:28.421Z,35.88
2023-07-17T16:57:54.919Z,35.32
2023-07-17T17:00:23.098Z,35.92
2023-07-17T17:02:49.894Z,35.51
2023-07-17T17:05:16.537Z,36.37
2023-07-17T17:07:43.013Z,36.07
2023-07-17T17:10:10.312Z,36.03
2023-07-17T17:12:36.822Z,35.65
2023-07-17T17:15:04.120Z,35.40
2023-07-17T17:17:33.078Z,35.62
2023-07-17T17:19:59.944Z,35.58
2023-07-17T17:22:26.610Z,35.39
2023-07-17T17:24:53.108Z,35.58
2023-07-17T17:27:20.257Z,35.66
2023-07-17T17:29:46.764Z,35.96
2023-07-17T17:32:13.420Z,36.23
2023-07-17T17:34:39.951Z,35.36
2023-07-17T17:37:06.415Z,36.34
2023-07-17T17:39:32.913Z,36.22
2023-07-17T17:41:59.381Z,36.40
2023-07-17T17:44:25.847Z,36.31
2023-07-17T17:46:52.351Z,35.90
2023-07-17T17:49:18.881Z,35.81
2023-07-17T17:51:45.380Z,36.08
2023-07-17T17:54:11.876Z,36.71
2023-07-17T17:56:38.350Z,37.06
2023-07-17T17:59:04.820Z,36.96
2023-07-17T18:01:31.434Z,36.90
2023-07-17T18:03:59.097Z,37.63
2023-07-17T18:06:25.864Z,37.73
2023-07-17T18:08:52.322Z,37.94
2023-07-17T18:11:19.082Z,38.64
2023-07-17T18:13:45.990Z,38.57
2023-07-17T18:18:39.253Z,39.05
2023-07-17T18:21:07.500Z,39.78
2023-07-17T18:23:34.455Z,39.97
2023-07-17T18:26:01.079Z,39.90
2023-07-17T18:28:27.553Z,39.43
2023-07-17T18:30:54.151Z,39.77
2023-07-17T18:33:21.743Z,39.65
2023-07-17T18:35:48.613Z,40.07
2023-07-17T18:38:16.223Z,39.75
2023-07-17T18:40:42.800Z,39.90
2023-07-17T18:43:09.310Z,39.70
2023-07-17T18:45:35.809Z,40.45
2023-07-17T18:48:02.329Z,40.24
2023-07-17T18:50:28.826Z,40.93
2023-07-17T18:52:56.306Z,40.96
2023-07-17T18:55:24.581Z,40.74
2023-07-17T18:57:51.042Z,41.01
2023-07-17T19:00:18.395Z,40.90
2023-07-17T19:02:44.866Z,41.13
2023-07-17T19:05:11.369Z,41.58
2023-07-17T19:07:37.926Z,41.38
2023-07-17T19:10:05.630Z,41.46
2023-07-17T19:12:32.170Z,41.86
2023-07-17T19:14:58.823Z,42.23
2023-07-17T19:17:25.455Z,41.40
2023-07-17T19:19:52.016Z,41.96
2023-07-17T19:22:18.488Z,41.86
2023-07-17T19:24:44.925Z,42.80
2023-07-17T19:27:11.415Z,43.23
2023-07-17T19:29:38.117Z,43.03
2023-07-17T19:32:04.971Z,43.87
2023-07-17T19:34:31.491Z,44.67
2023-07-17T19:36:58.222Z,44.94
2023-07-17T19:39:24.701Z,45.62
2023-07-17T19:41:52.035Z,45.90
2023-07-17T19:44:18.689Z,46.41
2023-07-17T19:46:45.180Z,49.45
2023-07-17T19:49:12.151Z,47.24
2023-07-17T19:51:39.375Z,50.70
2023-07-17T19:54:05.912Z,53.00
2023-07-17T19:56:32.359Z,54.24
2023-07-17T19:58:59.510Z,55.53
2023-07-17T20:01:28.589Z,55.31
2023-07-17T20:03:55.600Z,56.55
2023-07-17T20:06:23.829Z,58.02
2023-07-17T20:08:50.703Z,57.85
2023-07-17T20:11:17.622Z,59.07
2023-07-17T20:13:44.224Z,59.85
2023-07-17T20:16:10.734Z,59.83
2023-07-17T20:18:37.585Z,60.82
2023-07-17T20:21:04.148Z,61.17
2023-07-17T20:23:30.814Z,60.06
2023-07-17T20:25:59.074Z,61.05
2023-07-17T20:28:25.584Z,61.90
2023-07-17T20:30:52.124Z,61.68
2023-07-17T20:33:18.629Z,62.25
2023-07-17T20:35:45.381Z,62.40
2023-07-17T20:38:11.843Z,62.38
2023-07-17T20:40:39.108Z,62.72
2023-07-17T20:43:05.597Z,63.48
2023-07-17T20:45:46.427Z,63.16
2023-07-17T20:48:13.088Z,64.31
2023-07-17T20:50:39.649Z,64.94
2023-07-17T20:53:06.182Z,66.78
2023-07-17T20:55:32.647Z,66.22
2023-07-17T20:57:59.104Z,67.36
2023-07-17T21:00:25.847Z,67.73
2023-07-17T21:02:52.360Z,66.21
2023-07-17T21:05:23.272Z,64.55
2023-07-17T21:07:49.832Z,63.85
2023-07-17T21:10:16.316Z,62.14
2023-07-17T21:12:42.744Z,61.72
2023-07-17T21:15:10.125Z,60.09
2023-07-17T21:17:36.607Z,58.64
2023-07-17T21:20:04.788Z,57.44
2023-07-17T21:22:31.348Z,56.39
2023-07-17T21:24:57.852Z,57.96
2023-07-17T21:27:24.360Z,60.89
2023-07-17T21:29:50.883Z,62.40
2023-07-17T21:32:17.763Z,64.58
2023-07-17T21:34:44.202Z,66.38
2023-07-17T21:37:12.106Z,66.87
2023-07-17T21:39:39.711Z,67.03
2023-07-17T21:42:06.652Z,68.55
2023-07-17T21:44:33.132Z,69.65
2023-07-17T21:46:59.629Z,70.41
2023-07-17T21:49:26.115Z,71.26
2023-07-17T21:51:52.599Z,71.48
2023-07-17T21:54:19.103Z,72.97
2023-07-17T21:56:45.615Z,73.06
2023-07-17T21:59:12.072Z,74.66
2023-07-17T22:01:38.797Z,75.11
2023-07-17T22:04:05.700Z,75.68
2023-07-17T22:06:32.407Z,76.17
2023-07-17T22:08:58.885Z,76.54
2023-07-17T22:11:25.590Z,77.14
2023-07-17T22:13:52.035Z,77.14
2023-07-17T22:16:18.588Z,77.53
2023-07-17T22:18:45.162Z,77.62
2023-07-17T22:21:11.819Z,77.92
2023-07-17T22:23:38.421Z,76.89
2023-07-17T22:26:04.911Z,75.29
2023-07-17T22:28:31.451Z,74.01
2023-07-17T22:30:57.923Z,74.24
2023-07-17T22:33:24.943Z,74.55
2023-07-17T22:35:51.671Z,76.83
2023-07-17T22:38:18.124Z,78.11
2023-07-17T22:40:45.009Z,78.46
2023-07-17T22:43:12.457Z,79.96
2023-07-17T22:45:39.161Z,79.83
2023-07-17T22:48:05.865Z,81.04
2023-07-17T22:50:32.363Z,81.38
2023-07-17T22:52:58.872Z,81.49
2023-07-17T22:55:25.367Z,81.53
2023-07-17T22:57:51.844Z,81.33
2023-07-17T23:00:18.965Z,81.79
2023-07-17T23:02:45.574Z,81.63
2023-07-17T23:05:12.042Z,82.15
2023-07-17T23:07:38.629Z,82.10
2023-07-17T23:10:06.104Z,82.89
2023-07-17T23:12:32.703Z,83.76
2023-07-17T23:14:59.297Z,84.28
2023-07-17T23:17:25.864Z,84.38
2023-07-17T23:19:53.691Z,85.70
2023-07-17T23:22:20.907Z,85.46
2023-07-17T23:24:47.385Z,85.35
2023-07-17T23:27:13.855Z,86.26
2023-07-17T23:29:40.672Z,86.79
2023-07-17T23:32:08.148Z,86.89
2023-07-17T23:34:35.442Z,87.36
2023-07-17T23:37:02.095Z,88.08
2023-07-17T23:39:29.522Z,87.89
2023-07-17T23:41:56.135Z,88.72
2023-07-17T23:44:27.249Z,89.65
2023-07-17T23:46:53.681Z,89.98
2023-07-17T23:49:20.440Z,89.58
2023-07-17T23:51:47.261Z,89.88
2023-07-17T23:54:13.672Z,90.38
2023-07-17T23:56:40.611Z,90.55
2023-07-17T23:59:07.101Z,91.62
